Terminal Aerodrome Forecast
Issued by NWS Tampa Bay Area, FL

Home | Current Version | Previous Version | Text Only | Print | Product List | Glossary On
Versions: 1 2 3 4 5 6 7 8 9 10 11 12 13 14 15 16 17 18 19 20 21 22 23 24 25 26
000
FTUS42 KTBW 280522
TAFSRQ
TAF
KSRQ 280522Z 2806/2906 23013KT P6SM VCSH FEW040 SCT250
     FM281100 23012KT P6SM VCSH SCT020 BKN040
      TEMPO 2811/2814 4SM SHRA BKN020
     FM281400 24010KT P6SM VCSH SCT020 SCT250
      TEMPO 2814/2817 3SM SHRA BKN020
     FM281800 24011KT P6SM VCTS SCT025CB BKN080
     FM282300 24006KT P6SM VCSH SCT025 BKN035=

USA.gov is the U.S. government's official web portal to all federal, state and local government web resources and services.